Latest Weather Observations for Montague Island

IDN60801

Issued at 10:22 am EDT Wednesday 16 January 2019 (issued every 10 minutes, with the page automatically refreshed every 10 minutes)

About weather observations | Map of weather stations | Latest weather observations for NSW | Other Formats
Station Details ID: 069017 Name: MONTAGUE ISLAND LIGHTHOUSE Lat: -36.25 Lon: 150.23 Height: 52.0 m
Data from the previous 72 hours. | See also: Recent months at Montague Island
Date/Time
EDT
Temp
°C
App
Temp
°C
Dew
Point
°C
Rel
Hum
%
Delta-T
°C
Wind Press
QNH
hPa
Press
MSL
hPa
Rain since
9am
mm
Dir  Spd
km/h
Gust
km/h
Spd
kts
Gust
kts
16/10:00am 22.5 26.3 21.7 95 0.5 ENE 4 7 2 4 1010.2 1010.1 0.0
16/09:30am 22.5 26.4 21.8 96 0.5 SSE 4 7 2 4 1010.4 1010.3 0.0
16/09:00am 22.6 26.5 21.9 96 0.5 ESE 4 6 2 3 1010.4 1010.3 0.0
16/08:30am 22.6 26.9 21.9 96 0.5 SW 2 4 1 2 1010.3 1010.2 0.0
16/08:00am 22.3 26.4 21.6 96 0.5 ESE 2 4 1 2 1010.1 1010.0 0.0
16/07:30am 22.3 26.4 21.6 96 0.5 ENE 2 9 1 5 1009.7 1009.6 0.0
16/07:00am 22.2 26.3 21.5 96 0.5 NE 2 4 1 2 1009.6 1009.5 0.0
16/06:30am 22.2 24.6 21.5 96 0.5 NE 11 13 6 7 1009.3 1009.1 0.0
16/06:00am 22.3 26.1 21.6 96 0.5 NE 4 7 2 4 1009.1 1008.9 0.0
16/05:30am 22.2 25.3 21.5 96 0.5 ENE 7 13 4 7 1009.2 1009.0 0.0
16/05:00am 22.4 25.6 21.7 96 0.5 E 7 9 4 5 1009.2 1009.0 0.0
16/04:30am 22.4 25.2 21.6 95 0.5 E 9 13 5 7 1009.1 1008.9 0.0
16/04:00am 22.5 25.9 21.7 95 0.5 ENE 6 11 3 6 1009.2 1009.0 0.0
16/03:30am 22.6 25.9 21.8 95 0.5 NE 7 11 4 6 1009.2 1009.0 0.0
16/03:00am 22.6 25.1 21.8 95 0.5 ENE 11 15 6 8 1009.1 1008.9 0.0
16/02:30am 22.7 25.3 21.9 95 0.5 ENE 11 15 6 8 1009.6 1009.5 0.0
16/02:00am 22.8 25.4 22.0 95 0.5 NE 11 13 6 7 1009.8 1009.7 0.0
16/01:30am 22.8 24.3 22.0 95 0.5 NE 17 20 9 11 1009.8 1009.7 0.0
16/01:00am 22.8 25.3 21.8 94 0.7 ENE 11 17 6 9 1009.9 1009.8 0.0
16/12:30am 22.9 26.4 22.1 95 0.5 NNE 7 11 4 6 1010.5 1010.4 0.0
16/12:00am 22.9 24.8 22.1 95 0.5 NE 15 20 8 11 1010.2 1010.1 0.0
 
Date/Time
EDT
Temp
°C
App
Temp
°C
Dew
Point
°C
Rel
Hum
%
Delta-T
°C
Wind Press
QNH
hPa
Press
MSL
hPa
Rain since
9am
mm
Dir  Spd
km/h
Gust
km/h
Spd
kts
Gust
kts
15/11:30pm 23.0 24.5 22.0 94 0.7 NE 17 22 9 12 1010.2 1010.1 0.0
15/11:00pm 23.0 23.2 22.0 94 0.7 NE 24 30 13 16 1010.5 1010.4 0.0
15/10:30pm 23.1 23.7 22.1 94 0.7 NE 22 30 12 16 1010.8 1010.7 0.0
15/10:00pm 23.3 24.5 22.1 93 0.8 NE 19 24 10 13 1010.8 1010.7 0.0
15/09:30pm 23.3 25.1 21.9 92 0.9 NNE 15 22 8 12 1010.9 1010.8 0.0
15/09:00pm 23.4 23.5 21.8 91 1.1 NE 24 32 13 17 1010.4 1010.3 0.0
15/08:30pm 23.5 24.5 21.8 90 1.1 NE 19 24 10 13 1010.2 1010.1 0.0
15/08:00pm 23.6 25.3 21.7 89 1.3 NNE 15 20 8 11 1010.2 1010.1 0.0
15/07:30pm 23.7 25.4 21.6 88 1.4 NNE 15 20 8 11 1009.9 1009.8 0.0
15/07:00pm 23.7 23.9 21.4 87 1.5 NNE 22 28 12 15 1009.2 1009.0 0.0
15/06:30pm 24.1 24.9 21.4 85 1.8 NNE 19 24 10 13 1009.0 1008.8 0.0
15/06:00pm 24.2 22.6 21.5 85 1.8 N 32 39 17 21 1008.3 1008.1 0.0
15/05:30pm 24.5 23.3 21.6 84 1.9 N 30 39 16 21 1008.1 1007.9 0.0
15/05:00pm 24.7 23.6 21.8 84 1.9 N 30 37 16 20 1008.4 1008.2 0.0
15/04:30pm 24.5 24.7 22.0 86 1.7 N 24 33 13 18 1008.5 1008.3 0.0
15/04:00pm 24.7 23.2 21.8 84 1.9 N 32 37 17 20 1008.5 1008.3 0.0
15/03:30pm 24.4 22.9 21.7 85 1.8 NNE 32 39 17 21 1008.6 1008.4 0.0
15/03:00pm 24.8 22.9 22.1 85 1.8 NNE 35 41 19 22 1008.9 1008.7 0.0
15/02:30pm 25.0 23.5 22.1 84 1.9 NNE 33 43 18 23 1009.2 1009.0 0.0
15/02:00pm 24.7 21.9 21.8 84 1.9 NNE 39 46 21 25 1009.3 1009.1 0.0
15/01:30pm 24.8 23.3 22.1 85 1.8 NNE 33 43 18 23 1009.6 1009.5 0.0
15/01:00pm 24.8 23.9 22.1 85 1.8 NNE 30 37 16 20 1010.2 1010.1 0.0
15/12:30pm 24.5 24.3 22.0 86 1.7 NNE 26 35 14 19 1010.4 1010.3 0.0
15/12:00pm 24.8 24.9 22.5 87 1.5 NNE 26 33 14 18 1010.8 1010.7 0.0
15/11:30am 24.3 24.1 22.0 87 1.5 NNE 26 32 14 17 1011.1 1011.0 0.0
15/11:00am 24.0 24.1 21.9 88 1.4 NNE 24 30 13 16 1011.4 1011.3 0.0
15/10:30am 24.1 25.0 22.0 88 1.4 NNE 20 26 11 14 1011.7 1011.6 0.0
15/10:00am 23.9 24.3 21.8 88 1.4 NNE 22 28 12 15 1011.9 1011.8 0.0
15/09:30am 23.7 23.5 22.0 90 1.1 NNE 26 30 14 16 1012.1 1012.0 0.0
15/09:00am 23.2 22.4 21.6 91 1.1 N 28 32 15 17 1012.4 1012.3 0.0
15/08:30am 23.3 22.7 21.9 92 0.9 NNE 28 33 15 18 1012.4 1012.3 0.0
15/08:00am 22.9 21.9 21.9 94 0.7 N 30 37 16 20 1012.5 1012.4 0.0
15/07:30am 22.6 23.5 21.9 96 0.5 N 20 30 11 16 1012.4 1012.3 0.0
15/07:00am 22.4 22.4 21.7 96 0.5 N 24 32 13 17 1012.2 1012.1 0.0
15/06:30am 22.0 22.3 21.5 97 0.3 N 22 28 12 15 1011.7 1011.6 0.0
15/06:00am 21.7 22.3 21.4 98 0.2 N 20 24 11 13 1011.7 1011.6 0.0
15/05:30am 21.7 22.9 21.4 98 0.2 N 17 20 9 11 1011.7 1011.6 0.0
15/05:00am 21.6 22.6 21.1 97 0.3 N 17 20 9 11 1011.4 1011.3 0.0
15/04:30am 21.8 22.4 21.1 96 0.5 N 19 20 10 11 1011.4 1011.3 0.0
15/04:00am 22.0 22.4 21.0 94 0.7 N 20 26 11 14 1011.5 1011.4 0.0
15/03:30am 22.3 21.7 21.3 94 0.7 N 26 33 14 18 1011.4 1011.3 0.0
15/03:00am 22.6 20.9 21.4 93 0.8 N 32 41 17 22 1011.8 1011.7 0.0
15/02:30am 23.0 21.9 21.8 93 0.8 NNE 30 37 16 20 1012.4 1012.3 0.0
15/02:00am 22.9 21.3 21.5 92 0.9 NNE 32 37 17 20 1012.8 1012.7 0.0
15/01:30am 23.0 20.9 21.6 92 0.9 NNE 35 46 19 25 1013.2 1013.0 0.0
15/01:00am 23.1 21.0 21.7 92 0.9 NNE 35 44 19 24 1013.6 1013.4 0.0
15/12:30am 23.1 21.7 21.9 93 0.8 NNE 32 39 17 21 1013.8 1013.6 0.0
15/12:00am 23.1 21.6 21.7 92 0.9 NNE 32 39 17 21 1013.8 1013.6 0.0
 
Date/Time
EDT
Temp
°C
App
Temp
°C
Dew
Point
°C
Rel
Hum
%
Delta-T
°C
Wind Press
QNH
hPa
Press
MSL
hPa
Rain since
9am
mm
Dir  Spd
km/h
Gust
km/h
Spd
kts
Gust
kts
14/11:30pm 23.2 21.7 21.8 92 0.9 NNE 32 39 17 21 1014.1 1013.9 0.0
14/11:00pm 23.2 21.4 21.6 91 1.1 NNE 33 43 18 23 1014.3 1014.1 0.0
14/10:30pm 23.2 22.4 21.6 91 1.1 NE 28 37 15 20 1014.4 1014.2 0.0
14/10:00pm 23.2 23.1 21.5 90 1.1 NE 24 32 13 17 1014.4 1014.2 0.0
14/09:30pm 23.3 23.2 21.4 89 1.3 NE 24 32 13 17 1014.3 1014.1 0.0
14/09:00pm 23.3 23.1 21.2 88 1.4 NNE 24 32 13 17 1014.0 1013.8 0.0
14/08:30pm 23.4 22.3 21.1 87 1.5 NNE 28 39 15 21 1013.7 1013.5 0.0
14/08:00pm 23.4 21.3 20.9 86 1.6 NNE 33 44 18 24 1013.1 1012.9 0.0
14/07:30pm 23.5 21.4 21.0 86 1.6 NNE 33 44 18 24 1012.8 1012.7 0.0
14/07:00pm 23.6 21.6 21.1 86 1.6 NNE 33 43 18 23 1012.6 1012.5 0.0
14/06:30pm 23.8 22.1 21.3 86 1.6 NNE 32 39 17 21 1012.6 1012.5 0.0
14/06:00pm 24.0 22.9 21.7 87 1.5 NNE 30 37 16 20 1012.4 1012.3 0.0
14/05:30pm 23.9 21.7 21.4 86 1.7 NNE 35 43 19 23 1012.3 1012.2 0.0
14/05:00pm 24.2 22.2 21.9 87 1.5 NNE 35 43 19 23 1012.5 1012.4 0.0
14/04:30pm 24.1 21.7 21.8 87 1.5 NNE 37 46 20 25 1012.7 1012.6 0.0
14/04:00pm 24.3 21.1 21.8 86 1.7 NNE 41 52 22 28 1012.8 1012.7 0.0
14/03:30pm 24.3 22.3 21.8 86 1.7 NNE 35 44 19 24 1013.3 1013.1 0.0
14/03:00pm 24.2 22.1 21.7 86 1.7 NE 35 46 19 25 1013.8 1013.6 0.0
14/02:30pm 24.2 21.7 21.7 86 1.7 NNE 37 43 20 23 1013.9 1013.7 0.0
14/02:00pm 24.2 21.7 21.7 86 1.7 NNE 37 46 20 25 1014.3 1014.1 0.0
14/01:30pm 24.0 21.2 21.7 87 1.5 NNE 39 48 21 26 1014.6 1014.4 0.0
14/01:00pm 24.0 21.9 21.7 87 1.5 NE 35 43 19 23 1015.1 1014.9 0.0
14/12:30pm 23.9 22.6 21.4 86 1.7 NE 30 39 16 21 1015.8 1015.6 0.0
14/12:00pm 23.7 22.0 21.4 87 1.5 NE 32 41 17 22 1016.0 1015.8 0.0
14/11:30am 23.8 22.8 21.9 89 1.3 NNE 30 35 16 19 1016.6 1016.4 0.0
14/11:00am 23.4 22.0 21.1 87 1.5 NNE 30 35 16 19 1016.9 1016.7 0.0
14/10:30am 23.1 21.6 21.0 88 1.4 NNE 30 37 16 20 1017.3 1017.1 0.0
14/10:00am 22.9 23.3 21.0 89 1.2 N 20 26 11 14 1017.4 1017.2 0.0
14/09:30am 22.5 22.8 20.8 90 1.1 NNE 20 24 11 13 1017.6 1017.4 0.0
14/09:00am 21.9 23.3 20.4 91 1.0 N 13 17 7 9 1017.7 1017.5 3.0
14/08:30am 21.5 23.4 20.5 94 0.6 NNE 11 15 6 8 1018.0 1017.8 3.0
14/08:00am 21.4 24.3 20.7 96 0.5 N 6 9 3 5 1018.1 1017.9 3.0
14/07:30am 20.9 24.1 20.4 97 0.3 NW 4 7 2 4 1018.1 1017.9 3.0
14/07:00am 20.4 22.8 20.1 98 0.2 WNW 7 11 4 6 1017.9 1017.7 3.0
14/06:30am 20.2 22.6 20.0 99 0.1 W 7 9 4 5 1017.8 1017.6 3.0
14/06:00am 19.9 21.8 19.7 99 0.1 W 9 13 5 7 1017.5 1017.3 3.0
14/05:30am 19.8 20.9 19.6 99 0.1 W 13 15 7 8 1017.6 1017.4 3.0
14/05:00am 19.9 21.4 19.7 99 0.1 WSW 11 15 6 8 1017.6 1017.4 3.0
14/04:30am 19.9 20.2 19.7 99 0.1 WSW 17 20 9 11 1017.6 1017.4 2.6
14/04:00am 20.0 19.4 19.8 99 0.1 WSW 22 28 12 15 1017.7 1017.5 2.0
14/03:30am 20.3 19.5 20.1 99 0.1 WSW 24 28 13 15 1018.0 1017.8 1.2
14/03:00am 20.4 20.0 20.1 98 0.2 SW 22 28 12 15 1018.4 1018.2 1.2
14/02:30am 20.6 20.9 20.3 98 0.2 SW 19 28 10 15 1018.9 1018.7 1.0
14/02:00am 20.7 22.6 20.5 99 0.1 SSE 11 15 6 8 1019.8 1019.6 0.8
14/01:30am 20.2 21.1 20.0 99 0.1 S 15 19 8 10 1020.2 1020.0 0.8
14/01:00am 19.9 20.6 19.7 99 0.1 SE 15 20 8 11 1020.6 1020.4 0.8
14/12:30am 19.9 20.2 19.7 99 0.1 SSE 17 20 9 11 1021.2 1021.0 0.4
14/12:00am 19.8 20.1 19.5 98 0.2 SE 17 20 9 11 1021.5 1021.3 0.2
 
Date/Time
EDT
Temp
°C
App
Temp
°C
Dew
Point
°C
Rel
Hum
%
Delta-T
°C
Wind Press
QNH
hPa
Press
MSL
hPa
Rain since
9am
mm
Dir  Spd
km/h
Gust
km/h
Spd
kts
Gust
kts
13/11:30pm 19.5 19.1 19.0 97 0.3 ESE 19 22 10 12 1021.6 1021.4 0.2
13/11:00pm 20.0 19.5 19.2 95 0.5 ESE 20 24 11 13 1021.9 1021.7 0.0
13/10:30pm 20.6 18.9 18.9 90 1.1 E 26 30 14 16 1022.0 1021.8 0.0
13/10:00pm 21.1 19.8 19.0 88 1.3 E 24 30 13 16 1022.1 1021.9 0.0
13/09:30pm 20.9 20.6 19.2 90 1.1 ESE 19 24 10 13 1022.1 1021.9 0.0
13/09:00pm 21.2 19.8 18.9 87 1.4 ESE 24 30 13 16 1021.8 1021.6 0.0
13/08:30pm 21.7 20.4 19.1 85 1.6 ESE 24 26 13 14 1021.6 1021.4 0.0
13/08:00pm 21.4 20.3 18.6 84 1.8 ESE 22 28 12 15 1021.5 1021.3 0.0
13/07:30pm 21.4 20.5 19.0 86 1.5 ESE 22 26 12 14 1021.4 1021.2 0.0
13/07:00pm 20.9 19.1 18.8 88 1.3 E 26 32 14 17 1021.3 1021.1 0.0
13/06:30pm 21.2 19.5 18.9 87 1.5 SE 26 30 14 16 1021.1 1020.9 0.0
13/06:00pm 21.3 19.2 18.9 86 1.5 ESE 28 32 15 17 1021.1 1020.9 0.0
13/05:30pm 22.0 20.4 18.4 80 2.3 ESE 24 28 13 15 1021.1 1020.9 0.0
13/05:00pm 22.0 20.7 18.2 79 2.4 ESE 22 28 12 15 1021.2 1021.0 0.0
13/04:30pm 22.9 22.0 19.1 79 2.4 ESE 22 28 12 15 1021.2 1021.0 0.0
13/04:00pm 22.6 21.0 18.4 77 2.6 ESE 24 30 13 16 1021.3 1021.1 0.0
13/03:30pm 22.9 20.6 18.4 76 2.8 ESE 28 32 15 17 1021.4 1021.2 0.0
13/03:00pm 23.0 20.3 18.5 76 2.8 ESE 30 35 16 19 1021.5 1021.3 0.0
13/02:30pm 23.0 20.6 18.3 75 3.0 ESE 28 35 15 19 1021.7 1021.5 0.0
13/02:00pm 23.1 21.1 18.4 75 3.0 SE 26 32 14 17 1021.9 1021.7 0.0
13/01:30pm 23.0 21.3 18.1 74 3.1 SE 24 30 13 16 1022.1 1021.9 0.0
13/01:00pm 23.2 22.1 17.7 71 3.4 SE 20 28 11 15 1022.2 1022.0 0.0
13/12:30pm 22.4 21.0 18.0 76 2.7 SE 22 28 12 15 1022.2 1022.0 0.0
13/12:00pm 23.0 21.5 17.7 72 3.3 SE 22 28 12 15 1022.3 1022.1 0.0
13/11:30am 22.7 21.5 17.6 73 3.2 SSE 20 28 11 15 1022.2 1022.0 0.0
13/11:00am 21.8 19.5 18.4 81 2.1 SSW 28 33 15 18 1022.1 1021.9 0.0
13/10:30am 22.1 19.8 18.5 80 2.3 SSW 28 35 15 19 1022.0 1021.8 0.0

Other Formats:

Comma delimited format used in spreadsheet applications
http://www.bom.gov.au/fwo/IDN60801/IDN60801.94939.axf

JavaScript Object Notation format (JSON) in row-major order
http://www.bom.gov.au/fwo/IDN60801/IDN60801.94939.json